createdAt,value
2023-01-21T00:01:27.317Z,73.86
2023-01-21T00:03:54.983Z,72.23
2023-01-21T00:06:22.351Z,72.74
2023-01-21T00:08:50.032Z,71.37
2023-01-21T00:11:17.730Z,72.71
2023-01-21T00:13:45.182Z,70.61
2023-01-21T00:16:13.402Z,71.90
2023-01-21T00:18:41.380Z,68.64
2023-01-21T00:21:08.794Z,68.54
2023-01-21T00:23:36.260Z,66.25
2023-01-21T00:26:07.428Z,64.82
2023-01-21T00:28:35.953Z,64.45
2023-01-21T00:31:06.138Z,64.40
2023-01-21T00:33:34.111Z,65.16
2023-01-21T00:36:05.730Z,65.46
2023-01-21T00:38:33.545Z,66.40
2023-01-21T00:41:10.047Z,67.74
2023-01-21T00:43:39.421Z,69.37
2023-01-21T00:46:07.445Z,71.42
2023-01-21T00:48:35.348Z,68.78
2023-01-21T00:51:03.559Z,69.85
2023-01-21T00:53:33.312Z,70.33
2023-01-21T00:56:12.957Z,70.22
2023-01-21T00:58:43.409Z,71.39
2023-01-21T01:01:14.070Z,70.62
2023-01-21T01:03:42.551Z,72.24
2023-01-21T01:06:20.096Z,71.60
2023-01-21T01:08:49.781Z,71.49
2023-01-21T01:11:17.695Z,72.43
2023-01-21T01:13:45.151Z,74.54
2023-01-21T01:16:14.797Z,69.58
2023-01-21T01:18:42.685Z,71.28
2023-01-21T01:21:15.623Z,72.95
2023-01-21T01:23:43.866Z,81.65
2023-01-21T01:26:14.512Z,75.29
2023-01-21T01:28:42.226Z,76.19
2023-01-21T01:31:13.056Z,76.27
2023-01-21T01:33:40.552Z,73.32
2023-01-21T01:36:13.818Z,63.51
2023-01-21T01:38:41.563Z,72.73
2023-01-21T01:41:09.371Z,68.48
2023-01-21T01:43:50.735Z,64.41
2023-01-21T01:46:18.800Z,70.56
2023-01-21T01:48:50.693Z,76.63
2023-01-21T01:51:21.507Z,67.80
2023-01-21T01:53:49.091Z,64.15
2023-01-21T01:56:16.613Z,64.59
2023-01-21T01:58:44.625Z,60.97
2023-01-21T02:01:12.036Z,61.96
2023-01-21T02:03:45.085Z,61.95
2023-01-21T02:06:13.463Z,63.88
2023-01-21T02:08:41.449Z,67.95
2023-01-21T02:11:17.745Z,65.63
2023-01-21T02:13:57.368Z,71.21
2023-01-21T02:16:37.191Z,63.01
2023-01-21T02:19:46.078Z,66.64
2023-01-21T02:22:34.973Z,70.96
2023-01-21T02:25:30.967Z,59.90
2023-01-21T02:28:08.898Z,74.36
2023-01-21T02:30:59.590Z,69.51
2023-01-21T02:33:41.561Z,63.76
2023-01-21T02:36:33.893Z,64.34
2023-01-21T02:39:07.053Z,68.60
2023-01-21T02:41:40.550Z,66.28
2023-01-21T02:44:36.069Z,71.53
2023-01-21T02:47:24.856Z,67.21
2023-01-21T02:50:13.706Z,67.88
2023-01-21T02:52:41.520Z,69.82
2023-01-21T02:55:14.763Z,72.22
2023-01-21T02:57:49.319Z,74.92
2023-01-21T03:00:55.861Z,70.99
2023-01-21T03:03:32.301Z,72.33
2023-01-21T03:06:37.397Z,74.23
2023-01-21T03:09:25.869Z,75.10
2023-01-21T03:12:03.218Z,75.34
2023-01-21T03:14:56.282Z,73.34
2023-01-21T03:17:52.452Z,71.21
2023-01-21T03:20:39.800Z,69.77
2023-01-21T03:23:11.654Z,67.39
2023-01-21T03:25:40.464Z,71.03
2023-01-21T03:28:11.824Z,69.27
2023-01-21T03:30:44.734Z,64.00
2023-01-21T03:33:12.977Z,68.58
2023-01-21T03:35:43.259Z,69.93
2023-01-21T03:38:35.801Z,75.91
2023-01-21T03:41:14.722Z,76.00
2023-01-21T03:43:42.138Z,75.67
2023-01-21T03:46:14.447Z,80.71
2023-01-21T03:48:44.590Z,77.37
2023-01-21T03:51:16.784Z,79.65
2023-01-21T03:53:45.015Z,75.13
2023-01-21T03:56:12.750Z,66.73
2023-01-21T03:58:40.087Z,63.64
2023-01-21T04:01:07.849Z,62.34
2023-01-21T04:03:35.705Z,76.12
2023-01-21T04:06:03.098Z,76.78
2023-01-21T04:08:30.505Z,77.19
2023-01-21T04:10:58.156Z,81.81
2023-01-21T04:13:25.561Z,79.07
2023-01-21T04:15:52.932Z,77.58
2023-01-21T04:18:20.632Z,74.32
2023-01-21T04:20:48.077Z,72.31
2023-01-21T04:23:15.437Z,77.27
2023-01-21T04:25:43.132Z,78.29
2023-01-21T04:28:10.588Z,79.59
2023-01-21T04:30:38.041Z,74.93
2023-01-21T04:33:05.750Z,64.24
2023-01-21T04:35:35.267Z,61.82
2023-01-21T04:38:03.252Z,60.49
2023-01-21T04:40:30.911Z,60.31
2023-01-21T04:42:58.328Z,62.30
2023-01-21T04:45:25.753Z,61.78
2023-01-21T04:47:53.475Z,68.31
2023-01-21T04:50:20.918Z,64.04
2023-01-21T04:52:48.342Z,64.34
2023-01-21T04:55:16.141Z,62.81
2023-01-21T04:57:43.617Z,64.11
2023-01-21T05:00:12.699Z,62.33
2023-01-21T05:02:40.421Z,63.95
2023-01-21T05:05:08.332Z,65.52
2023-01-21T05:07:35.735Z,64.84
2023-01-21T05:10:03.788Z,65.05
2023-01-21T05:12:31.342Z,65.02
2023-01-21T05:14:58.807Z,65.61
2023-01-21T05:17:26.659Z,67.66
2023-01-21T05:19:54.020Z,69.59
2023-01-21T05:22:21.896Z,70.36
2023-01-21T05:24:49.570Z,71.74
2023-01-21T05:27:17.076Z,72.41
2023-01-21T05:29:44.471Z,71.25
2023-01-21T05:32:12.179Z,69.55
2023-01-21T05:34:39.598Z,68.67
2023-01-21T05:37:07.048Z,67.62
2023-01-21T05:39:34.718Z,68.70
2023-01-21T05:42:02.132Z,69.63
2023-01-21T05:44:29.509Z,69.14
2023-01-21T05:46:57.222Z,68.16
2023-01-21T05:49:24.608Z,67.75
2023-01-21T05:51:52.019Z,66.49
2023-01-21T05:54:19.709Z,65.46
2023-01-21T05:56:47.090Z,64.26
2023-01-21T05:59:14.461Z,64.33
2023-01-21T06:01:42.134Z,62.40
2023-01-21T06:04:09.979Z,61.02
2023-01-21T06:06:37.581Z,60.21
2023-01-21T06:09:05.003Z,66.38
2023-01-21T06:11:32.746Z,64.04
2023-01-21T06:14:00.136Z,62.05
2023-01-21T06:16:27.557Z,60.83
2023-01-21T06:18:55.237Z,59.33
2023-01-21T06:21:22.643Z,58.96
2023-01-21T06:23:50.007Z,59.78
2023-01-21T06:26:17.925Z,59.99
2023-01-21T06:28:45.319Z,62.45
2023-01-21T06:31:12.830Z,65.04
2023-01-21T06:33:40.563Z,59.93
2023-01-21T06:36:08.396Z,58.82
2023-01-21T06:38:36.341Z,68.22
2023-01-21T06:41:04.175Z,67.06
2023-01-21T06:43:31.589Z,65.86
2023-01-21T06:45:59.015Z,59.26
2023-01-21T06:48:26.687Z,64.14
2023-01-21T06:50:54.126Z,61.13
2023-01-21T06:53:21.586Z,60.15
2023-01-21T06:55:49.269Z,58.74
2023-01-21T06:58:16.679Z,64.07
2023-01-21T07:00:44.533Z,58.39
2023-01-21T07:03:12.262Z,55.05
2023-01-21T07:05:39.678Z,55.80
2023-01-21T07:08:08.274Z,57.27
2023-01-21T07:10:35.993Z,60.41
2023-01-21T07:13:03.389Z,58.46
2023-01-21T07:15:30.935Z,57.08
2023-01-21T07:17:58.907Z,64.50
2023-01-21T07:20:26.505Z,71.39
2023-01-21T07:22:53.896Z,69.70
2023-01-21T07:25:21.586Z,68.18
2023-01-21T07:27:48.974Z,68.88
2023-01-21T07:30:20.572Z,70.17
2023-01-21T07:32:48.652Z,66.26
2023-01-21T07:35:16.417Z,65.54
2023-01-21T07:37:43.893Z,65.63
2023-01-21T07:40:12.073Z,64.93
2023-01-21T07:42:39.509Z,66.99
2023-01-21T07:45:07.181Z,69.77
2023-01-21T07:47:34.878Z,68.17
2023-01-21T07:50:05.040Z,72.40
2023-01-21T07:52:32.501Z,70.33
2023-01-21T07:55:01.705Z,70.44
2023-01-21T07:57:29.173Z,67.58
2023-01-21T07:59:56.604Z,69.45
2023-01-21T08:02:24.570Z,69.14
2023-01-21T08:04:52.312Z,69.70
2023-01-21T08:07:19.782Z,70.51
2023-01-21T08:09:47.282Z,67.23
2023-01-21T08:12:14.967Z,69.68
2023-01-21T08:14:42.415Z,69.31
2023-01-21T08:17:09.853Z,59.40
2023-01-21T08:19:37.556Z,64.00
2023-01-21T08:22:05.119Z,58.26
2023-01-21T08:24:32.994Z,56.97
2023-01-21T08:27:00.830Z,59.96
2023-01-21T08:29:28.294Z,64.11
2023-01-21T08:31:55.688Z,56.30
2023-01-21T08:34:23.494Z,56.64
2023-01-21T08:36:50.870Z,56.06
2023-01-21T08:39:18.288Z,57.77
2023-01-21T08:41:46.040Z,59.47
2023-01-21T08:44:13.549Z,61.34
2023-01-21T08:46:40.971Z,63.12
2023-01-21T08:49:08.763Z,66.88
2023-01-21T08:51:36.131Z,69.24
2023-01-21T08:54:08.041Z,67.08
2023-01-21T08:56:35.883Z,66.16
2023-01-21T08:59:03.349Z,64.91
2023-01-21T09:01:30.765Z,69.80
2023-01-21T09:04:00.276Z,70.66
2023-01-21T09:06:29.123Z,72.91
2023-01-21T09:08:57.147Z,67.05
2023-01-21T09:11:25.443Z,67.11
2023-01-21T09:13:52.817Z,68.60
2023-01-21T09:16:22.613Z,59.10
2023-01-21T09:18:50.495Z,61.39
2023-01-21T09:21:17.939Z,58.31
2023-01-21T09:23:45.528Z,62.61
2023-01-21T09:26:19.807Z,57.51
2023-01-21T09:28:52.308Z,53.94
2023-01-21T09:31:24.316Z,54.30
2023-01-21T09:33:54.137Z,50.72
2023-01-21T09:36:24.517Z,50.45
2023-01-21T09:38:52.259Z,51.03
2023-01-21T09:41:38.656Z,55.51
2023-01-21T09:44:29.820Z,52.69
2023-01-21T09:47:15.164Z,55.30
2023-01-21T09:49:49.688Z,54.08
2023-01-21T09:52:27.550Z,54.49
2023-01-21T09:54:59.053Z,53.80
2023-01-21T09:57:39.405Z,56.77
2023-01-21T10:00:44.967Z,57.10
2023-01-21T10:03:40.561Z,56.04
2023-01-21T10:06:23.386Z,61.84
2023-01-21T10:09:21.389Z,58.75
2023-01-21T10:11:57.412Z,58.84
2023-01-21T10:14:31.413Z,61.82
2023-01-21T10:17:27.006Z,64.55
2023-01-21T10:20:02.031Z,65.16
2023-01-21T10:22:29.627Z,60.11
2023-01-21T10:24:59.006Z,62.27
2023-01-21T10:27:27.538Z,64.83
2023-01-21T10:29:58.050Z,60.34
2023-01-21T10:32:27.501Z,65.18
2023-01-21T10:34:56.409Z,69.53
2023-01-21T10:37:42.987Z,65.57
2023-01-21T10:40:43.798Z,71.48
2023-01-21T10:43:17.141Z,65.49
2023-01-21T10:45:56.126Z,61.29
2023-01-21T10:48:37.823Z,62.41
2023-01-21T10:51:22.173Z,64.18
2023-01-21T10:54:00.662Z,61.96
2023-01-21T10:56:34.318Z,62.94
2023-01-21T10:59:08.599Z,63.25
2023-01-21T11:01:58.891Z,65.23
2023-01-21T11:04:28.213Z,63.78
2023-01-21T11:07:07.959Z,62.24
2023-01-21T11:09:38.420Z,63.90
2023-01-21T11:12:06.165Z,62.81
2023-01-21T11:14:34.102Z,59.72
2023-01-21T11:17:01.779Z,60.34
2023-01-21T11:19:33.120Z,61.44
2023-01-21T11:22:20.947Z,59.07
2023-01-21T11:24:50.667Z,63.08
2023-01-21T11:27:19.771Z,61.50
2023-01-21T11:29:49.268Z,62.42
2023-01-21T11:32:22.505Z,61.67
2023-01-21T11:34:52.402Z,58.23
2023-01-21T11:37:28.117Z,54.43
2023-01-21T11:39:55.495Z,56.48
2023-01-21T11:42:24.098Z,57.69
2023-01-21T11:44:57.682Z,64.16
2023-01-21T11:47:38.911Z,60.60
2023-01-21T11:50:38.402Z,63.61
2023-01-21T11:53:18.981Z,59.32
2023-01-21T11:55:54.074Z,58.26
2023-01-21T11:58:36.197Z,60.86
2023-01-21T12:01:07.908Z,57.70
2023-01-21T12:03:41.363Z,60.24
2023-01-21T12:06:10.136Z,56.67
2023-01-21T12:08:38.849Z,58.65
2023-01-21T12:11:07.230Z,60.22
2023-01-21T12:13:37.229Z,57.41
2023-01-21T12:16:07.708Z,60.53
2023-01-21T12:19:16.433Z,56.41
2023-01-21T12:22:24.472Z,61.63
2023-01-21T12:25:15.203Z,62.54
2023-01-21T12:27:54.947Z,59.07
2023-01-21T12:30:33.489Z,57.35
2023-01-21T12:33:07.679Z,59.58
2023-01-21T12:35:46.582Z,58.63
2023-01-21T12:38:19.420Z,59.63
2023-01-21T12:40:52.850Z,56.75
2023-01-21T12:43:33.925Z,59.11
2023-01-21T12:46:27.655Z,56.29
2023-01-21T12:49:26.407Z,57.72
2023-01-21T12:52:05.201Z,59.88
2023-01-21T12:54:46.508Z,59.39
2023-01-21T12:57:20.731Z,60.47
2023-01-21T12:59:54.871Z,58.28
2023-01-21T13:02:48.594Z,58.86
2023-01-21T13:05:32.946Z,61.99
2023-01-21T13:08:22.865Z,57.77
2023-01-21T13:10:56.118Z,56.68
2023-01-21T13:13:28.916Z,58.42
2023-01-21T13:16:00.529Z,58.72
2023-01-21T13:18:36.711Z,57.94
2023-01-21T13:21:41.917Z,57.49
2023-01-21T13:24:15.099Z,57.22
2023-01-21T13:27:05.168Z,59.67
2023-01-21T13:30:11.622Z,64.55
2023-01-21T13:32:44.420Z,60.42
2023-01-21T13:35:41.936Z,58.65
2023-01-21T13:38:17.662Z,59.41
2023-01-21T13:41:00.477Z,62.37
2023-01-21T13:43:37.148Z,59.80
2023-01-21T13:46:19.119Z,59.52
2023-01-21T13:48:59.204Z,59.09
2023-01-21T13:51:40.630Z,56.90
2023-01-21T13:54:11.723Z,56.38
2023-01-21T13:56:45.025Z,58.82
2023-01-21T13:59:31.322Z,57.42
2023-01-21T14:02:24.020Z,58.11
2023-01-21T14:05:15.465Z,58.90
2023-01-21T14:07:48.057Z,57.22
2023-01-21T14:10:33.661Z,58.58
2023-01-21T14:13:09.920Z,59.07
2023-01-21T14:16:08.625Z,58.28
2023-01-21T14:19:05.291Z,58.65
2023-01-21T14:22:10.697Z,57.95
2023-01-21T14:24:41.508Z,56.38
2023-01-21T14:27:47.557Z,57.96
2023-01-21T14:30:24.195Z,59.80
2023-01-21T14:33:01.377Z,58.99
2023-01-21T14:35:34.221Z,57.48
2023-01-21T14:38:17.068Z,58.96
2023-01-21T14:40:49.079Z,58.89
2023-01-21T14:43:43.286Z,59.04
2023-01-21T14:46:34.185Z,59.59
2023-01-21T14:49:10.409Z,62.01
2023-01-21T14:51:52.249Z,62.05
2023-01-21T14:54:25.082Z,60.37
2023-01-21T14:57:19.227Z,59.95
2023-01-21T14:59:47.750Z,60.66
2023-01-21T15:02:31.062Z,63.31
2023-01-21T15:05:03.725Z,61.25
2023-01-21T15:07:35.795Z,60.26
2023-01-21T15:10:18.204Z,62.18
2023-01-21T15:13:02.000Z,61.26
2023-01-21T15:15:36.908Z,64.44
2023-01-21T15:18:24.407Z,64.25
2023-01-21T15:20:58.617Z,60.72
2023-01-21T15:23:29.425Z,62.68
2023-01-21T15:26:12.089Z,59.20
2023-01-21T15:28:49.631Z,59.74
2023-01-21T15:31:20.430Z,59.47
2023-01-21T15:33:50.514Z,61.16
2023-01-21T15:36:31.143Z,60.32
2023-01-21T15:39:22.657Z,61.34
2023-01-21T15:42:14.042Z,62.75
2023-01-21T15:44:58.268Z,59.45
2023-01-21T15:47:39.008Z,60.30
2023-01-21T15:50:26.898Z,59.79
2023-01-21T15:53:09.717Z,61.88
2023-01-21T15:56:06.639Z,64.42
2023-01-21T15:59:07.220Z,61.89
2023-01-21T16:01:38.299Z,59.38
2023-01-21T16:04:28.222Z,57.84
2023-01-21T16:07:08.875Z,59.94
2023-01-21T16:09:46.779Z,60.76
2023-01-21T16:12:17.396Z,61.46
2023-01-21T16:15:01.260Z,59.69
2023-01-21T16:17:45.186Z,58.84
2023-01-21T16:20:13.609Z,57.33
2023-01-21T16:22:43.373Z,57.86
2023-01-21T16:25:15.292Z,58.89
2023-01-21T16:27:49.227Z,58.56
2023-01-21T16:30:21.598Z,58.95
2023-01-21T16:33:08.373Z,60.61
2023-01-21T16:35:52.457Z,60.02
2023-01-21T16:38:24.131Z,60.72
2023-01-21T16:41:14.733Z,60.36
2023-01-21T16:43:49.863Z,58.48
2023-01-21T16:46:22.307Z,58.60
2023-01-21T16:48:52.092Z,61.19
2023-01-21T16:51:23.734Z,58.92
2023-01-21T16:53:53.728Z,57.32
2023-01-21T16:56:29.661Z,58.39
2023-01-21T16:58:57.727Z,59.48
2023-01-21T17:01:26.930Z,63.96
2023-01-21T17:03:55.484Z,62.64
2023-01-21T17:06:32.759Z,61.67
2023-01-21T17:09:04.578Z,63.46
2023-01-21T17:11:34.860Z,62.40
2023-01-21T17:14:10.132Z,63.33
2023-01-21T17:16:39.851Z,62.56
2023-01-21T17:19:14.708Z,63.89
2023-01-21T17:21:50.619Z,62.66
2023-01-21T17:24:24.280Z,62.76
2023-01-21T17:26:55.599Z,62.71
2023-01-21T17:29:30.161Z,63.43
2023-01-21T17:32:25.927Z,63.17
2023-01-21T17:35:15.298Z,63.06
2023-01-21T17:37:58.851Z,61.75
2023-01-21T17:40:31.738Z,61.16
2023-01-21T17:43:08.019Z,62.94
2023-01-21T17:45:38.045Z,64.94
2023-01-21T17:48:11.204Z,64.04
2023-01-21T17:50:46.683Z,64.14
2023-01-21T17:53:25.472Z,61.36
2023-01-21T17:56:05.451Z,61.55
2023-01-21T17:58:48.935Z,59.80
2023-01-21T18:01:18.674Z,60.82
2023-01-21T18:03:47.769Z,59.88
2023-01-21T18:06:23.054Z,60.86
2023-01-21T18:08:51.524Z,59.67
2023-01-21T18:11:19.580Z,56.49
2023-01-21T18:13:48.261Z,61.80
2023-01-21T18:16:16.635Z,58.83
2023-01-21T18:18:44.996Z,63.97
2023-01-21T18:21:21.982Z,64.43
2023-01-21T18:23:50.696Z,60.98
2023-01-21T18:26:30.639Z,55.50
2023-01-21T18:28:59.172Z,60.91
2023-01-21T18:31:27.543Z,58.85
2023-01-21T18:33:57.200Z,60.37
2023-01-21T18:36:26.080Z,63.20
2023-01-21T18:38:53.942Z,60.29
2023-01-21T18:41:22.236Z,62.54
2023-01-21T18:43:54.809Z,56.93
2023-01-21T18:46:23.873Z,60.90
2023-01-21T18:48:52.728Z,58.15
2023-01-21T18:51:21.702Z,60.63
2023-01-21T18:53:50.678Z,57.51
2023-01-21T18:56:20.304Z,56.63
2023-01-21T18:58:48.858Z,59.97
2023-01-21T19:01:23.447Z,55.95
2023-01-21T19:03:54.276Z,59.98
2023-01-21T19:06:23.220Z,56.77
2023-01-21T19:08:52.219Z,57.60
2023-01-21T19:11:20.986Z,56.48
2023-01-21T19:13:49.495Z,56.79
2023-01-21T19:16:19.437Z,55.70
2023-01-21T19:18:49.705Z,56.54
2023-01-21T19:21:17.908Z,56.20
2023-01-21T19:23:46.217Z,54.44
2023-01-21T19:26:14.831Z,52.83
2023-01-21T19:28:43.363Z,54.27
2023-01-21T19:31:14.872Z,57.60
2023-01-21T19:33:46.052Z,56.56
2023-01-21T19:36:17.831Z,57.69
2023-01-21T19:38:59.741Z,57.79
2023-01-21T19:41:28.480Z,57.67
2023-01-21T19:43:58.052Z,59.80
2023-01-21T19:46:29.306Z,55.34
2023-01-21T19:48:59.133Z,56.71
2023-01-21T19:51:31.602Z,58.52
2023-01-21T19:54:00.992Z,62.03
2023-01-21T19:56:29.479Z,58.16
2023-01-21T19:58:58.026Z,57.87
2023-01-21T20:01:30.137Z,57.07
2023-01-21T20:04:00.823Z,54.58
2023-01-21T20:06:34.497Z,50.06
2023-01-21T20:09:04.291Z,50.93
2023-01-21T20:11:32.572Z,49.45
2023-01-21T20:14:00.909Z,49.36
2023-01-21T20:16:31.295Z,51.62
2023-01-21T20:19:02.480Z,50.40
2023-01-21T20:21:36.241Z,49.15
2023-01-21T20:24:08.475Z,53.05
2023-01-21T20:26:37.843Z,52.25
2023-01-21T20:29:09.993Z,52.36
2023-01-21T20:31:38.669Z,52.56
2023-01-21T20:34:09.357Z,55.44
2023-01-21T20:36:38.742Z,53.41
2023-01-21T20:39:07.616Z,52.68
2023-01-21T20:41:37.506Z,53.39
2023-01-21T20:44:06.087Z,52.86
2023-01-21T20:46:40.226Z,56.10
2023-01-21T20:49:11.743Z,60.11
2023-01-21T20:51:40.758Z,67.82
2023-01-21T20:54:09.191Z,62.70
2023-01-21T20:56:38.495Z,58.51
2023-01-21T20:59:09.498Z,61.92
2023-01-21T21:01:39.909Z,58.67
2023-01-21T21:04:08.415Z,62.95
2023-01-21T21:06:36.714Z,54.63
2023-01-21T21:09:06.023Z,50.76
2023-01-21T21:11:35.201Z,57.45
2023-01-21T21:14:04.141Z,53.10
2023-01-21T21:16:34.306Z,50.84
2023-01-21T21:19:04.091Z,50.27
2023-01-21T21:21:35.284Z,59.01
2023-01-21T21:24:06.513Z,53.53
2023-01-21T21:26:37.471Z,53.91
2023-01-21T21:29:12.090Z,50.39
2023-01-21T21:31:40.323Z,55.55
2023-01-21T21:34:10.331Z,61.83
2023-01-21T21:36:41.892Z,56.97
2023-01-21T21:39:10.029Z,60.44
2023-01-21T21:41:57.403Z,56.23
2023-01-21T21:44:25.909Z,62.15
2023-01-21T21:47:12.175Z,59.08
2023-01-21T21:49:40.649Z,58.71
2023-01-21T21:52:08.517Z,54.98
2023-01-21T21:54:36.976Z,53.21
2023-01-21T21:57:04.889Z,55.64
2023-01-21T21:59:32.553Z,53.56
2023-01-21T22:02:00.856Z,59.15
2023-01-21T22:04:28.968Z,54.38
2023-01-21T22:06:57.799Z,52.52
2023-01-21T22:09:25.350Z,53.75
2023-01-21T22:11:53.822Z,53.17
2023-01-21T22:14:21.472Z,52.80
2023-01-21T22:16:49.909Z,51.56
2023-01-21T22:19:18.477Z,48.59
2023-01-21T22:21:45.919Z,54.41
2023-01-21T22:24:13.331Z,52.32
2023-01-21T22:26:41.163Z,58.42
2023-01-21T22:29:08.630Z,57.55
2023-01-21T22:31:36.206Z,54.42
2023-01-21T22:34:04.106Z,55.99
2023-01-21T22:36:32.201Z,58.81
2023-01-21T22:38:59.864Z,56.66
2023-01-21T22:41:28.027Z,54.92
2023-01-21T22:43:55.729Z,57.22
2023-01-21T22:46:30.034Z,55.07
2023-01-21T22:48:58.344Z,59.25
2023-01-21T22:51:26.669Z,56.69
2023-01-21T22:53:54.634Z,52.68
2023-01-21T22:56:39.990Z,53.72
2023-01-21T22:59:11.833Z,56.40
2023-01-21T23:01:39.753Z,55.26
2023-01-21T23:04:07.208Z,56.25
2023-01-21T23:06:36.883Z,59.57
2023-01-21T23:09:08.095Z,59.50
2023-01-21T23:11:38.668Z,54.54
2023-01-21T23:14:08.794Z,55.30
2023-01-21T23:16:36.293Z,58.09
2023-01-21T23:19:03.959Z,56.60
2023-01-21T23:21:31.712Z,53.83
2023-01-21T23:23:59.166Z,50.07
2023-01-21T23:26:26.563Z,50.88
2023-01-21T23:28:56.014Z,51.02
2023-01-21T23:31:24.141Z,47.42
2023-01-21T23:33:52.715Z,57.86
2023-01-21T23:36:20.447Z,59.21
2023-01-21T23:38:47.869Z,57.07
2023-01-21T23:41:19.848Z,53.67
2023-01-21T23:43:47.806Z,49.85
2023-01-21T23:46:16.845Z,52.93
2023-01-21T23:48:44.408Z,55.21
2023-01-21T23:51:14.114Z,60.38
2023-01-21T23:53:41.588Z,54.47
2023-01-21T23:56:22.199Z,51.41
2023-01-21T23:58:50.422Z,53.11
